Terminal Aerodrome Forecast
Issued by NWS Blacksburg, VA

Home | Current Version | Previous Version | Text Only | Print | Product List | Glossary On
Versions: 1 2 3 4 5 6 7 8 9 10 11 12 13 14 15 16 17 18 19 20 21 22 23 24 25
000
FTUS41 KRNK 220926 AAA
TAFDAN
TAF AMD
KDAN 220926Z 2209/2306 04006KT P6SM -RA OVC035
     FM221200 04007KT 4SM -RA BR SCT004 OVC015
     FM221600 04005KT 5SM BR OVC015
     FM230300 02003KT 2SM BR OVC007=

USA.gov is the U.S. government's official web portal to all federal, state and local government web resources and services.